Terminal Aerodrome Forecast
Issued by NWS Wilmington, OH

Current Version | Previous Version | Graphics & Text | Print | Product List | Glossary On
Versions: 1 2 3 4 5 6 7 8 9 10 11 12 13 14 15 16 17 18 19 20 21 22 23 24 25 26 27 28 29 30 31
000
FTUS41 KILN 240700 AAA
TAFILN
TAF AMD
KILN 240701Z 2407/2506 19017G28KT P6SM VCSH SCT008 OVC012
      TEMPO 2407/2409 21019G33KT SCT012 OVC025
     FM241100 18018G32KT P6SM VCSH SCT015 OVC025
      TEMPO 2415/2417 23023G36KT 5SM -SHRA BR OVC015
     FM241700 24017G27KT P6SM OVC028=

USA.gov is the U.S. government's official web portal to all federal, state and local government web resources and services.